Governador Jorge Teixeira, Brazil
Current Conditions -  °F | °C
As of 9:00 AM on Thursday 27 Nov 2014 (Local Time) from SBPV Reporting Station
Broken Clouds Broken Clouds  
Wind Chill: 75°   Ceiling: 900
Heat Index: 75°   Visibility: 5mi
Dew Point: 72°   Wind: 0mph
Humidity: 89%   Direction: NA
Pressure: 29.91"   Gusts: NA
Location:  10.53°S, 62.64°W
Report Text: SBPV 271300Z 00000KT 8000 BKN009 BKN080 24/22 Q1013
Loading
Personal Weather Stations






























Interactive Weather Map New forecast layout! Learn more

10-Day Weather Forecast

Advertisements
Track Severe Weather on mobile